Time;durP1;ratioP1;P1;durP2;ratioP2;P2;SDS_P1;SDS_P2;PMS_P1;PMS_P2;Temp;Humidity;BMP_temperature;BMP_pressure;BME280_temperature;BME280_humidity;BME280_pressure;Samples;Min_cycle;Max_cycle;Signal;HPM_P1;HPM_P2
2023/03/19 00:00:16;;;;;;;;;;;;;;;12.34;100.00;97636.81;5125579;27;19987;-66
2023/03/19 00:02:48;;;;;;;;;;;;;;;12.32;100.00;97645.13;5122721;28;19969;-66
2023/03/19 00:05:15;;;;;;;;;;;;;;;12.30;100.00;97638.44;5119489;28;19979;-66
2023/03/19 00:07:41;;;;;;;;;;;;;;;12.24;100.00;97639.56;5119412;28;19928;-66
2023/03/19 00:10:08;;;;;;;;;;;;;;;12.25;100.00;97641.16;5122270;28;19950;-66
2023/03/19 00:12:34;;;;;;;;;;;;;;;12.25;100.00;97641.16;5122746;28;19924;-66
2023/03/19 00:15:01;;;;;;;;;;;;;;;12.26;100.00;97637.41;5120786;28;19923;-66
2023/03/19 00:17:28;;;;;;;;;;;;;;;12.26;100.00;97632.84;5119243;28;19924;-66
2023/03/19 00:19:55;;;;;;;;;;;;;;;12.17;100.00;97629.16;5120591;28;19987;-66
2023/03/19 00:22:22;;;;;;;;;;;;;;;11.95;100.00;97630.66;5122849;28;19950;-65
2023/03/19 00:24:48;;;;;;;;;;;;;;;11.83;100.00;97639.84;5122488;28;19923;-65
2023/03/19 00:27:14;;;;;;;;;;;;;;;11.76;100.00;97643.91;5119285;28;19935;-66
2023/03/19 00:29:41;;;;;;;;;;;;;;;11.88;100.00;97637.13;5119796;28;19947;-65
2023/03/19 00:32:08;;;;;;;;;;;;;;;12.01;100.00;97637.59;5122991;27;19955;-65
2023/03/19 00:34:36;;;;;;;;;;;;;;;12.07;100.00;97634.59;5122410;28;19924;-65
2023/03/19 00:37:02;;;;;;;;;;;;;;;12.09;100.00;97631.66;5120104;28;19924;-65
2023/03/19 00:39:29;;;;;;;;;;;;;;;12.07;100.00;97626.56;5118710;28;19935;-65
2023/03/19 00:41:55;;;;;;;;;;;;;;;12.12;100.00;97626.53;5119674;28;19924;-65
2023/03/19 00:44:21;;;;;;;;;;;;;;;12.10;100.00;97627.91;5121979;28;19946;-65
2023/03/19 00:46:48;;;;;;;;;;;;;;;12.09;100.00;97628.97;5121867;28;19965;-65
2023/03/19 00:49:14;;;;;;;;;;;;;;;12.10;100.00;97625.22;5118653;28;19957;-66
2023/03/19 00:51:42;;;;;;;;;;;;;;;12.10;100.00;97625.22;5118321;28;19927;-64
2023/03/19 00:54:10;;;;;;;;;;;;;;;12.06;100.00;97626.84;5121669;28;19924;-65
2023/03/19 00:56:37;;;;;;;;;;;;;;;12.07;100.00;97623.13;5121947;28;19924;-65
2023/03/19 00:59:03;;;;;;;;;;;;;;;11.94;100.00;97623.75;5119322;28;19978;-65
2023/03/19 01:01:29;;;;;;;;;;;;;;;11.64;100.00;97622.81;5120785;28;20022;-65
2023/03/19 01:03:56;;;;;;;;;;;;;;;11.68;100.00;97620.38;5119631;28;19967;-65
2023/03/19 01:06:22;;;;;;;;;;;;;;;11.80;100.00;97619.00;5121731;28;19951;-65
2023/03/19 01:08:50;;;;;;;;;;;;;;;11.90;100.00;97626.97;5121525;28;19924;-65
2023/03/19 01:11:17;;;;;;;;;;;;;;;11.93;100.00;97630.16;5118465;28;19935;-65
2023/03/19 01:13:44;;;;;;;;;;;;;;;11.93;100.00;97625.59;5118169;28;20018;-65
2023/03/19 01:16:10;;;;;;;;;;;;;;;11.95;100.00;97625.31;5120813;28;19984;-65
2023/03/19 01:18:37;;;;;;;;;;;;;;;11.91;100.00;97623.19;5121662;28;19955;-65
2023/03/19 01:21:04;;;;;;;;;;;;;;;11.88;100.00;97625.66;5119251;28;19919;-65
2023/03/19 01:23:30;;;;;;;;;;;;;;;11.83;100.00;97623.78;5117989;28;20539;-65
2023/03/19 01:25:58;;;;;;;;;;;;;;;11.85;100.00;97616.28;5119358;28;19924;-66
2023/03/19 01:28:24;;;;;;;;;;;;;;;11.88;100.00;97621.06;5121318;28;20011;-65
2023/03/19 01:30:51;;;;;;;;;;;;;;;11.91;100.00;97622.41;5123267;28;19941;-65
2023/03/19 01:33:19;;;;;;;;;;;;;;;11.90;100.00;97623.50;5118018;28;19934;-65
2023/03/19 01:35:46;;;;;;;;;;;;;;;11.91;100.00;97625.88;5117903;28;19943;-65
2023/03/19 01:38:13;;;;;;;;;;;;;;;11.90;100.00;97624.28;5109667;28;19967;-65
2023/03/19 01:40:43;;;;;;;;;;;;;;;11.90;100.00;97626.97;5109119;28;19941;-65
2023/03/19 01:43:16;;;;;;;;;;;;;;;11.90;100.00;97634.19;5109380;28;19931;-65
2023/03/19 01:45:43;;;;;;;;;;;;;;;11.91;100.00;97633.13;5109387;28;19986;-65
2023/03/19 01:48:16;;;;;;;;;;;;;;;11.91;100.00;97628.53;5109257;28;19983;-65
2023/03/19 01:50:44;;;;;;;;;;;;;;;11.91;100.00;97627.78;5109400;28;19947;-65
2023/03/19 01:53:12;;;;;;;;;;;;;;;11.82;100.00;97624.09;5109826;28;19925;-65
2023/03/19 01:55:38;;;;;;;;;;;;;;;11.75;100.00;97605.66;5109403;28;20000;-65
2023/03/19 01:58:06;;;;;;;;;;;;;;;11.60;100.00;97616.44;5109316;28;19959;-65
2023/03/19 02:00:34;;;;;;;;;;;;;;;11.52;100.00;97614.31;5117941;28;19923;-65
2023/03/19 02:03:02;;;;;;;;;;;;;;;11.61;100.00;97626.03;5119513;28;20018;-65
2023/03/19 02:05:29;;;;;;;;;;;;;;;11.67;100.00;97624.13;5117850;28;19924;-65
2023/03/19 02:07:56;;;;;;;;;;;;;;;11.73;100.00;97623.84;5119010;28;19954;-65
2023/03/19 02:10:23;;;;;;;;;;;;;;;11.74;100.00;97630.81;5121181;28;19924;-65
2023/03/19 02:12:49;;;;;;;;;;;;;;;11.77;100.00;97629.44;5120625;28;19923;-65
2023/03/19 02:15:16;;;;;;;;;;;;;;;11.76;100.00;97631.31;5117706;28;19959;-65
2023/03/19 02:17:44;;;;;;;;;;;;;;;11.79;100.00;97640.69;5117472;28;19959;-65
2023/03/19 02:20:14;;;;;;;;;;;;;;;11.78;100.00;97636.41;5120807;28;19955;-65
2023/03/19 02:22:47;;;;;;;;;;;;;;;11.76;100.00;97635.91;5121041;28;19924;-65
2023/03/19 02:25:16;;;;;;;;;;;;;;;11.75;100.00;97636.97;5117565;28;20014;-65
2023/03/19 02:27:44;;;;;;;;;;;;;;;11.76;100.00;97641.25;5120658;28;20041;-66
2023/03/19 02:30:17;;;;;;;;;;;;;;;11.77;100.00;97642.81;5122583;28;19931;-66
2023/03/19 02:32:44;;;;;;;;;;;;;;;11.74;100.00;97641.50;5120707;28;20027;-65
2023/03/19 02:35:11;;;;;;;;;;;;;;;11.70;100.00;97648.47;5121622;28;19920;-65
2023/03/19 02:37:37;;;;;;;;;;;;;;;11.68;100.00;97639.91;5121715;28;19935;-65
2023/03/19 02:40:06;;;;;;;;;;;;;;;11.69;100.00;97638.03;5123753;28;19924;-65
2023/03/19 02:42:33;;;;;;;;;;;;;;;11.69;100.00;97640.72;5124105;28;19934;-65
2023/03/19 02:45:01;;;;;;;;;;;;;;;11.71;100.00;97642.06;5123363;28;20094;-65
2023/03/19 02:47:27;;;;;;;;;;;;;;;11.70;100.00;97636.97;5122045;28;19924;-65
2023/03/19 02:49:54;;;;;;;;;;;;;;;11.68;100.00;97636.44;5122995;28;19963;-66
2023/03/19 02:52:20;;;;;;;;;;;;;;;11.61;100.00;97635.94;5125901;28;19919;-66
2023/03/19 02:54:47;;;;;;;;;;;;;;;11.42;100.00;97632.31;5125362;28;19963;-66
2023/03/19 02:57:13;;;;;;;;;;;;;;;11.25;100.00;97632.63;5113339;28;19931;-66
2023/03/19 02:59:40;;;;;;;;;;;;;;;11.27;100.00;97633.94;5113598;27;19924;-66
2023/03/19 03:02:08;;;;;;;;;;;;;;;11.08;100.00;97632.94;5126200;27;19999;-66
2023/03/19 03:04:35;;;;;;;;;;;;;;;11.13;100.00;97629.47;5125350;28;19923;-66
2023/03/19 03:07:02;;;;;;;;;;;;;;;11.17;100.00;97631.31;5123073;28;19991;-66
2023/03/19 03:09:28;;;;;;;;;;;;;;;11.30;100.00;97635.28;5121289;28;19967;-66
2023/03/19 03:11:54;;;;;;;;;;;;;;;11.37;100.00;97635.78;5122194;28;19996;-65
2023/03/19 03:14:21;;;;;;;;;;;;;;;11.36;100.00;97640.34;5124768;28;19920;-66
2023/03/19 03:16:48;;;;;;;;;;;;;;;11.39;100.00;97636.31;5124307;28;19950;-66
2023/03/19 03:19:15;;;;;;;;;;;;;;;11.42;100.00;97635.75;5121071;28;19971;-66
2023/03/19 03:21:42;;;;;;;;;;;;;;;11.47;100.00;97648.31;5120809;28;19967;-66
2023/03/19 03:24:09;;;;;;;;;;;;;;;11.51;100.00;97642.16;5123862;28;19920;-66
2023/03/19 03:26:37;;;;;;;;;;;;;;;11.46;100.00;97652.06;5124124;28;19960;-65
2023/03/19 03:29:04;;;;;;;;;;;;;;;11.51;100.00;97658.19;5121979;28;19951;-65
2023/03/19 03:31:30;;;;;;;;;;;;;;;11.47;100.00;97654.47;5113306;28;19987;-65
2023/03/19 03:33:56;;;;;;;;;;;;;;;11.43;100.00;97657.94;5121954;28;19957;-65
2023/03/19 03:36:24;;;;;;;;;;;;;;;11.36;100.00;97661.72;5124178;28;19923;-65
2023/03/19 03:38:51;;;;;;;;;;;;;;;11.33;100.00;97667.63;5122849;28;19931;-65
2023/03/19 03:41:17;;;;;;;;;;;;;;;11.33;100.00;97667.63;5120744;28;19928;-65
2023/03/19 03:43:44;;;;;;;;;;;;;;;11.34;100.00;97671.09;5121139;28;19978;-65
2023/03/19 03:46:10;;;;;;;;;;;;;;;11.34;100.00;97674.56;5123857;28;19978;-65
2023/03/19 03:48:36;;;;;;;;;;;;;;;11.32;100.00;97670.56;5124276;28;19923;-65
2023/03/19 03:51:03;;;;;;;;;;;;;;;11.34;100.00;97673.75;5122044;28;19966;-66
2023/03/19 03:53:31;;;;;;;;;;;;;;;11.31;100.00;97668.97;5120679;28;19924;-65
2023/03/19 03:55:57;;;;;;;;;;;;;;;11.34;100.00;97679.09;5122198;28;19956;-65
2023/03/19 03:58:23;;;;;;;;;;;;;;;11.33;100.00;97678.31;5124155;28;19962;-65
2023/03/19 04:00:50;;;;;;;;;;;;;;;11.35;100.00;97678.06;5125663;27;20018;-66
2023/03/19 04:03:17;;;;;;;;;;;;;;;11.17;100.00;97674.06;5120165;28;19928;-66
2023/03/19 04:05:43;;;;;;;;;;;;;;;10.81;100.00;97665.38;5119925;28;19924;-66
2023/03/19 04:08:10;;;;;;;;;;;;;;;10.51;100.00;97681.44;5123038;28;19924;-65
2023/03/19 04:10:41;;;;;;;;;;;;;;;10.57;100.00;97683.03;5123330;28;19991;-65
2023/03/19 04:13:07;;;;;;;;;;;;;;;10.72;100.00;97683.00;5120284;28;19928;-65
2023/03/19 04:15:34;;;;;;;;;;;;;;;10.83;100.00;97673.13;5119289;28;20022;-65
2023/03/19 04:18:00;;;;;;;;;;;;;;;10.89;100.00;97677.38;5121288;28;19926;-65
2023/03/19 04:20:26;;;;;;;;;;;;;;;10.94;100.00;97679.22;5123037;28;19924;-65
2023/03/19 04:22:53;;;;;;;;;;;;;;;10.97;100.00;97678.69;5122013;28;19966;-65
2023/03/19 04:25:19;;;;;;;;;;;;;;;10.96;100.00;97672.53;5119231;28;19924;-65
2023/03/19 04:27:47;;;;;;;;;;;;;;;10.98;100.00;97675.75;5119167;28;20011;-65
2023/03/19 04:30:14;;;;;;;;;;;;;;;11.03;100.00;97678.41;5119162;28;19931;-65
2023/03/19 04:32:40;;;;;;;;;;;;;;;11.09;100.00;97682.66;5118057;28;19977;-65
2023/03/19 04:35:07;;;;;;;;;;;;;;;11.08;100.00;97685.63;5119718;28;19927;-65
2023/03/19 04:37:33;;;;;;;;;;;;;;;11.12;100.00;97697.34;5119048;28;19930;-65
2023/03/19 04:39:59;;;;;;;;;;;;;;;11.13;100.00;97690.94;5120457;28;19966;-65
2023/03/19 04:42:26;;;;;;;;;;;;;;;10.89;100.00;97692.59;5122322;28;19935;-65
2023/03/19 04:44:53;;;;;;;;;;;;;;;10.89;100.00;97696.09;5121650;28;19970;-65
2023/03/19 04:47:20;;;;;;;;;;;;;;;10.96;100.00;97709.13;5117736;28;19966;-65
2023/03/19 04:49:47;;;;;;;;;;;;;;;11.02;100.00;97702.72;5118726;28;19932;-65
2023/03/19 04:52:13;;;;;;;;;;;;;;;11.06;100.00;97703.78;5110559;28;19920;-65
2023/03/19 04:54:40;;;;;;;;;;;;;;;10.90;100.00;97707.53;5110387;28;19982;-65
2023/03/19 04:57:06;;;;;;;;;;;;;;;10.77;100.00;97709.69;5110570;28;19931;-65
2023/03/19 04:59:32;;;;;;;;;;;;;;;10.74;100.00;97702.22;5110219;28;19924;-65
2023/03/19 05:02:00;;;;;;;;;;;;;;;10.77;100.00;97706.22;5122815;27;19948;-65
2023/03/19 05:04:27;;;;;;;;;;;;;;;10.86;100.00;97711.84;5122243;28;19991;-65
2023/03/19 05:06:53;;;;;;;;;;;;;;;10.87;100.00;97711.56;5120033;28;19927;-65
2023/03/19 05:09:20;;;;;;;;;;;;;;;10.94;100.00;97719.31;5118649;28;19946;-65
2023/03/19 05:11:46;;;;;;;;;;;;;;;10.99;100.00;97711.28;5118717;28;19930;-65
2023/03/19 05:14:12;;;;;;;;;;;;;;;10.96;100.00;97730.50;5110432;28;19956;-65
2023/03/19 05:16:39;;;;;;;;;;;;;;;10.99;100.00;97728.09;5110542;28;19931;-65
2023/03/19 05:19:07;;;;;;;;;;;;;;;10.94;100.00;97738.00;5110623;28;19974;-65
2023/03/19 05:21:33;;;;;;;;;;;;;;;10.66;100.00;97732.16;5110700;28;19924;-65
2023/03/19 05:23:59;;;;;;;;;;;;;;;10.65;100.00;97746.56;5110404;28;19939;-65
2023/03/19 05:26:26;;;;;;;;;;;;;;;10.67;100.00;97744.44;5109947;28;19981;-65
2023/03/19 05:28:52;;;;;;;;;;;;;;;10.65;100.00;97745.75;5109919;28;19991;-65
2023/03/19 05:31:18;;;;;;;;;;;;;;;10.77;100.00;97741.75;5111224;28;19947;-65
2023/03/19 05:33:45;;;;;;;;;;;;;;;10.53;100.00;97735.34;5118537;28;19924;-65
2023/03/19 05:36:12;;;;;;;;;;;;;;;10.22;100.00;97733.72;5121867;28;19967;-65
2023/03/19 05:38:39;;;;;;;;;;;;;;;10.34;100.00;97731.59;5122125;28;19920;-65
2023/03/19 05:41:06;;;;;;;;;;;;;;;10.32;100.00;97720.38;5119639;28;19930;-65
2023/03/19 05:43:32;;;;;;;;;;;;;;;10.38;100.00;97730.00;5118612;28;19952;-65
2023/03/19 05:45:59;;;;;;;;;;;;;;;10.56;100.00;97734.00;5120306;28;19991;-65
2023/03/19 05:48:26;;;;;;;;;;;;;;;10.65;100.00;97733.22;5122118;28;19986;-65
2023/03/19 05:50:52;;;;;;;;;;;;;;;10.44;100.00;97728.13;5121324;28;19923;-65
2023/03/19 05:53:20;;;;;;;;;;;;;;;10.43;100.00;97727.31;5119024;28;19920;-65
2023/03/19 05:55:46;;;;;;;;;;;;;;;10.57;100.00;97744.44;5118559;28;19995;-65
2023/03/19 05:58:13;;;;;;;;;;;;;;;10.68;100.00;97746.03;5110108;28;19952;-65
2023/03/19 06:00:39;;;;;;;;;;;;;;;10.80;100.00;97743.06;5111156;28;20500;-65
2023/03/19 06:03:06;;;;;;;;;;;;;;;10.87;100.00;97753.50;5122629;28;20018;-65
2023/03/19 06:05:32;;;;;;;;;;;;;;;10.93;100.00;97749.75;5122341;28;19934;-65
2023/03/19 06:07:58;;;;;;;;;;;;;;;10.89;100.00;97762.88;5123550;28;19931;-66
2023/03/19 06:10:27;;;;;;;;;;;;;;;10.90;100.00;97771.66;5125518;28;19987;-65
2023/03/19 06:12:53;;;;;;;;;;;;;;;10.90;100.00;97791.16;5123337;28;19924;-65
2023/03/19 06:15:19;;;;;;;;;;;;;;;10.91;100.00;97784.78;5121838;28;19924;-65
2023/03/19 06:17:46;;;;;;;;;;;;;;;10.50;100.00;97783.94;5122044;28;19938;-65
2023/03/19 06:20:12;;;;;;;;;;;;;;;9.99;100.00;97785.69;5125267;28;19927;-65
2023/03/19 06:22:39;;;;;;;;;;;;;;;9.57;100.00;97776.94;5125325;28;20014;-65
2023/03/19 06:25:06;;;;;;;;;;;;;;;9.32;100.00;97788.28;5122885;28;20467;-65
2023/03/19 06:27:34;;;;;;;;;;;;;;;9.22;100.00;97786.34;5121695;28;19992;-66
2023/03/19 06:30:00;;;;;;;;;;;;;;;9.11;100.00;97797.19;5123131;28;19971;-65
2023/03/19 06:32:26;;;;;;;;;;;;;;;9.14;100.00;97783.38;5118430;28;20090;-65
2023/03/19 06:34:54;;;;;;;;;;;;;;;9.31;100.00;97784.03;5124371;28;19935;-65
2023/03/19 06:37:20;;;;;;;;;;;;;;;9.58;100.00;97787.38;5121643;28;19924;-66
2023/03/19 06:39:47;;;;;;;;;;;;;;;9.74;100.00;97786.38;5121455;28;19946;-65
2023/03/19 06:42:14;;;;;;;;;;;;;;;9.96;100.00;97790.72;5112975;28;19924;-66
2023/03/19 06:44:41;;;;;;;;;;;;;;;10.13;100.00;97791.31;5112912;28;19975;-66
2023/03/19 06:47:08;;;;;;;;;;;;;;;10.38;100.00;97794.06;5112971;28;20902;-66
2023/03/19 06:49:34;;;;;;;;;;;;;;;10.47;100.00;97794.34;5112736;28;19934;-66
2023/03/19 06:52:01;;;;;;;;;;;;;;;10.58;100.00;97804.78;5112652;28;19983;-65
2023/03/19 06:54:27;;;;;;;;;;;;;;;10.62;100.00;97816.53;5112478;28;19983;-65
2023/03/19 06:56:53;;;;;;;;;;;;;;;10.68;100.00;97804.78;5112586;28;19920;-65
2023/03/19 06:59:20;;;;;;;;;;;;;;;10.71;100.00;97814.94;5112645;28;19924;-65
2023/03/19 07:01:47;;;;;;;;;;;;;;;10.75;100.00;97816.00;5112650;28;19928;-65
2023/03/19 07:04:14;;;;;;;;;;;;;;;10.78;100.00;97822.69;5121032;28;19924;-65
2023/03/19 07:06:40;;;;;;;;;;;;;;;10.79;100.00;97821.63;5120926;28;19931;-66
2023/03/19 07:09:07;;;;;;;;;;;;;;;10.82;100.00;97827.25;5123543;28;19962;-65
2023/03/19 07:11:33;;;;;;;;;;;;;;;10.85;100.00;97828.59;5124224;28;19924;-65
2023/03/19 07:13:59;;;;;;;;;;;;;;;10.88;100.00;97824.56;5122586;28;19934;-65
2023/03/19 07:16:26;;;;;;;;;;;;;;;10.87;100.00;97829.09;5120764;28;19927;-65
2023/03/19 07:18:55;;;;;;;;;;;;;;;10.91;100.00;97832.06;5121254;28;19991;-65
2023/03/19 07:21:21;;;;;;;;;;;;;;;10.94;100.00;97836.88;5124379;28;19942;-65
2023/03/19 07:23:49;;;;;;;;;;;;;;;10.94;100.00;97826.19;5124139;28;19955;-65
2023/03/19 07:26:15;;;;;;;;;;;;;;;10.95;100.00;97827.78;5112306;28;19987;-65
2023/03/19 07:28:42;;;;;;;;;;;;;;;10.95;100.00;97841.16;5112220;28;19960;-65
2023/03/19 07:31:08;;;;;;;;;;;;;;;10.99;100.00;97851.03;5113447;28;19932;-65
2023/03/19 07:33:34;;;;;;;;;;;;;;;11.03;100.00;97849.44;5120721;28;19924;-65
2023/03/19 07:36:02;;;;;;;;;;;;;;;11.00;100.00;97857.97;5122291;28;19924;-65
2023/03/19 07:38:28;;;;;;;;;;;;;;;10.94;100.00;97867.06;5123964;28;19991;-65
2023/03/19 07:40:55;;;;;;;;;;;;;;;11.00;100.00;97871.34;5122619;28;19987;-65
2023/03/19 07:43:21;;;;;;;;;;;;;;;11.03;100.00;97870.81;5120233;28;20019;-65
2023/03/19 07:45:48;;;;;;;;;;;;;;;11.00;100.00;97871.34;5120056;28;19950;-65
2023/03/19 07:48:14;;;;;;;;;;;;;;;11.00;100.00;97876.69;5120239;28;19973;-65
2023/03/19 07:50:41;;;;;;;;;;;;;;;10.85;100.00;97860.63;5120174;28;19995;-65
2023/03/19 07:53:08;;;;;;;;;;;;;;;11.00;100.00;97873.19;5122762;28;19960;-65
2023/03/19 07:55:36;;;;;;;;;;;;;;;11.07;100.00;97881.75;5123170;28;19994;-65
2023/03/19 07:58:03;;;;;;;;;;;;;;;11.00;100.00;97868.66;5121201;28;19924;-65
2023/03/19 08:00:29;;;;;;;;;;;;;;;11.10;100.00;97881.22;5119546;28;19999;-65
2023/03/19 08:02:55;;;;;;;;;;;;;;;11.17;100.00;97876.44;5119621;28;19963;-65
2023/03/19 08:05:22;;;;;;;;;;;;;;;10.94;100.00;97885.75;5119756;28;19995;-65
2023/03/19 08:07:50;;;;;;;;;;;;;;;10.98;100.00;97880.69;5119598;28;19983;-66
2023/03/19 08:10:17;;;;;;;;;;;;;;;11.14;100.00;97885.75;5123188;28;19924;-65
2023/03/19 08:12:44;;;;;;;;;;;;;;;11.12;100.00;97879.09;5123210;28;19958;-65
2023/03/19 08:15:11;;;;;;;;;;;;;;;11.16;100.00;97886.31;5120107;28;19983;-65
2023/03/19 08:17:38;;;;;;;;;;;;;;;11.23;100.00;97884.16;5119503;28;19924;-65
2023/03/19 08:20:05;;;;;;;;;;;;;;;11.26;100.00;97880.19;5121715;28;20331;-65
2023/03/19 08:22:31;;;;;;;;;;;;;;;11.31;100.00;97872.16;5122834;28;19923;-65
2023/03/19 08:24:58;;;;;;;;;;;;;;;11.36;100.00;97880.16;5120853;28;19931;-65
2023/03/19 08:27:26;;;;;;;;;;;;;;;11.30;100.00;97870.53;5118069;28;20046;-65
2023/03/19 08:29:52;;;;;;;;;;;;;;;11.17;100.00;97863.84;5120532;28;19924;-65
2023/03/19 08:32:19;;;;;;;;;;;;;;;11.28;100.00;97867.34;5115348;28;19963;-65
2023/03/19 08:34:45;;;;;;;;;;;;;;;11.34;100.00;97861.72;5122683;28;20018;-66
2023/03/19 08:37:11;;;;;;;;;;;;;;;11.22;100.00;97877.22;5119542;28;19984;-65
2023/03/19 08:39:38;;;;;;;;;;;;;;;11.23;100.00;97873.47;5119272;28;19991;-66
2023/03/19 08:42:04;;;;;;;;;;;;;;;11.36;100.00;97874.81;5121365;28;19923;-66
2023/03/19 08:44:32;;;;;;;;;;;;;;;11.31;100.00;97872.94;5122863;28;20035;-66
2023/03/19 08:46:59;;;;;;;;;;;;;;;11.31;100.00;97882.84;5121454;28;19924;-66
2023/03/19 08:49:26;;;;;;;;;;;;;;;11.32;100.00;97887.94;5119286;28;19930;-65
2023/03/19 08:51:52;;;;;;;;;;;;;;;11.05;100.00;97878.56;5120006;28;19960;-65
2023/03/19 08:54:19;;;;;;;;;;;;;;;11.00;100.00;97878.53;5122761;28;19983;-65
2023/03/19 08:56:45;;;;;;;;;;;;;;;11.07;100.00;97879.91;5122525;28;19923;-66
2023/03/19 08:59:12;;;;;;;;;;;;;;;11.17;100.00;97879.09;5119168;28;20261;-66
2023/03/19 09:01:38;;;;;;;;;;;;;;;11.21;100.00;97880.16;5111639;28;19943;-66
2023/03/19 09:04:06;;;;;;;;;;;;;;;11.26;100.00;97888.19;5121087;28;19924;-66
2023/03/19 09:06:32;;;;;;;;;;;;;;;11.42;100.00;97887.09;5122363;28;19992;-66
2023/03/19 09:08:58;;;;;;;;;;;;;;;11.43;100.00;97883.38;5120760;28;19919;-66
2023/03/19 09:11:25;;;;;;;;;;;;;;;11.54;100.00;97901.03;5118930;28;20445;-66
2023/03/19 09:13:51;;;;;;;;;;;;;;;11.57;100.00;97897.81;5119183;28;19935;-66
2023/03/19 09:16:18;;;;;;;;;;;;;;;11.55;100.00;97905.28;5122368;28;19931;-66
2023/03/19 09:18:44;;;;;;;;;;;;;;;11.45;100.00;97889.22;5122155;28;19924;-66
2023/03/19 09:21:12;;;;;;;;;;;;;;;11.55;100.00;97899.13;5119046;28;19971;-65
2023/03/19 09:23:39;;;;;;;;;;;;;;;11.51;100.00;97890.88;5118705;28;19962;-66
2023/03/19 09:26:05;;;;;;;;;;;;;;;11.53;100.00;97903.94;5121155;28;19966;-66
2023/03/19 09:28:32;;;;;;;;;;;;;;;11.51;100.00;97909.59;5122090;28;20451;-65
2023/03/19 09:30:58;;;;;;;;;;;;;;;11.52;100.00;97905.00;5113381;28;19924;-66
2023/03/19 09:33:24;;;;;;;;;;;;;;;11.61;100.00;97909.56;5118582;28;20048;-66
2023/03/19 09:35:52;;;;;;;;;;;;;;;11.71;100.00;97914.94;5119096;28;19924;-66
2023/03/19 09:38:19;;;;;;;;;;;;;;;11.83;100.00;97903.94;5126262;28;19931;-66
2023/03/19 09:40:47;;;;;;;;;;;;;;;11.84;100.00;97902.88;5125833;28;19924;-66
2023/03/19 09:43:25;;;;;;;;;;;;;;;11.92;100.00;97902.31;5114179;28;19970;-66
2023/03/19 09:45:52;;;;;;;;;;;;;;;11.96;100.00;97907.91;5113907;28;19955;-66
2023/03/19 09:48:20;;;;;;;;;;;;;;;11.95;100.00;97909.78;5113994;28;19927;-66
2023/03/19 09:50:48;;;;;;;;;;;;;;;11.87;100.00;97918.38;5113908;28;19966;-66
2023/03/19 09:53:18;;;;;;;;;;;;;;;11.71;100.00;97917.59;5122747;28;19955;-66
2023/03/19 09:55:47;;;;;;;;;;;;;;;11.79;100.00;97917.03;5122358;28;19963;-66
2023/03/19 09:58:15;;;;;;;;;;;;;;;11.58;100.00;97910.09;5113956;28;19928;-66
2023/03/19 10:00:42;;;;;;;;;;;;;;;11.50;100.00;97907.16;5115093;28;19983;-66
2023/03/19 10:03:16;;;;;;;;;;;;;;;11.71;100.00;97911.44;5122263;28;19928;-66
2023/03/19 10:05:48;;;;;;;;;;;;;;;11.60;100.00;97913.31;5122183;28;19931;-66
2023/03/19 10:08:26;;;;;;;;;;;;;;;11.85;100.00;97915.19;5122158;28;19984;-66
2023/03/19 10:11:01;;;;;;;;;;;;;;;11.98;100.00;97914.59;5122694;28;19987;-66
2023/03/19 10:13:33;;;;;;;;;;;;;;;11.98;100.00;97905.75;5125621;28;19959;-66
2023/03/19 10:16:00;;;;;;;;;;;;;;;12.04;100.00;97907.38;5123772;28;19966;-66
2023/03/19 10:18:31;;;;;;;;;;;;;;;12.07;100.00;97909.50;5121938;28;19970;-66
2023/03/19 10:20:58;;;;;;;;;;;;;;;12.01;100.00;97914.06;5123146;28;19946;-65
2023/03/19 10:23:45;;;;;;;;;;;;;;;11.98;100.00;97905.75;5125515;28;19987;-66
2023/03/19 10:26:15;;;;;;;;;;;;;;;11.86;100.00;97906.06;5125825;28;19992;-65
2023/03/19 10:28:43;;;;;;;;;;;;;;;11.83;100.00;97902.06;5121706;28;19924;-65
2023/03/19 10:31:20;;;;;;;;;;;;;;;11.86;100.00;97901.53;5121544;28;19924;-65
2023/03/19 10:33:52;;;;;;;;;;;;;;;11.88;100.00;97898.59;5121437;28;19935;-66
2023/03/19 10:36:20;;;;;;;;;;;;;;;11.84;100.00;97901.00;5112967;28;19924;-66
2023/03/19 10:38:46;;;;;;;;;;;;;;;11.94;100.00;97910.06;5112893;28;19927;-65
2023/03/19 10:41:20;;;;;;;;;;;;;;;11.82;100.00;97908.47;5112813;28;19967;-66
2023/03/19 10:43:50;;;;;;;;;;;;;;;11.87;100.00;97903.13;5113302;28;19938;-66
2023/03/19 10:46:16;;;;;;;;;;;;;;;11.87;100.00;97913.84;5113063;28;19992;-66
2023/03/19 10:48:44;;;;;;;;;;;;;;;11.92;100.00;97904.97;5120820;28;19931;-65
2023/03/19 10:51:13;;;;;;;;;;;;;;;11.85;100.00;97905.25;5124427;28;19951;-65
2023/03/19 10:53:40;;;;;;;;;;;;;;;11.87;100.00;97902.31;5125430;28;19951;-66
2023/03/19 10:56:07;;;;;;;;;;;;;;;11.97;100.00;97896.16;5122820;28;19935;-66
2023/03/19 10:58:36;;;;;;;;;;;;;;;12.06;100.00;97891.84;5121939;28;19924;-66
2023/03/19 11:01:05;;;;;;;;;;;;;;;12.06;100.00;97894.50;5121614;28;19959;-66
2023/03/19 11:03:32;;;;;;;;;;;;;;;12.00;100.00;97903.63;5121589;28;19928;-66
2023/03/19 11:06:06;;;;;;;;;;;;;;;12.15;100.00;97898.22;5122952;28;19928;-66
2023/03/19 11:08:35;;;;;;;;;;;;;;;12.16;100.00;97902.53;5123486;28;19963;-66
2023/03/19 11:11:01;;;;;;;;;;;;;;;12.20;100.00;97908.91;5122711;28;20251;-67
2023/03/19 11:13:27;;;;;;;;;;;;;;;12.01;100.00;97918.63;5121060;28;19924;-67
2023/03/19 11:15:57;;;;;;;;;;;;;;;12.45;100.00;97924.88;5121718;28;19931;-66
2023/03/19 11:18:27;;;;;;;;;;;;;;;12.40;100.00;97922.25;5124439;28;19920;-66
2023/03/19 11:20:55;;;;;;;;;;;;;;;12.51;100.00;97923.78;5122753;28;19959;-66
2023/03/19 11:23:21;;;;;;;;;;;;;;;12.56;100.00;97931.81;5120969;28;20011;-66
2023/03/19 11:25:51;;;;;;;;;;;;;;;12.20;100.00;97927.66;5120930;28;19988;-66
2023/03/19 11:28:18;;;;;;;;;;;;;;;12.51;100.00;97934.50;5112428;28;19924;-66
2023/03/19 11:30:49;;;;;;;;;;;;;;;12.63;100.00;97923.47;5113717;28;19928;-66
2023/03/19 11:33:26;;;;;;;;;;;;;;;12.62;100.00;97925.38;5120716;28;19952;-66
2023/03/19 11:35:57;;;;;;;;;;;;;;;12.71;100.00;97914.88;5121243;28;19931;-66
2023/03/19 11:38:29;;;;;;;;;;;;;;;12.61;100.00;97918.41;5124198;28;19946;-66
2023/03/19 11:41:02;;;;;;;;;;;;;;;12.76;100.00;97907.59;5121641;28;19924;-66
2023/03/19 11:43:44;;;;;;;;;;;;;;;12.61;100.00;97910.34;5120486;28;19931;-66
2023/03/19 11:46:17;;;;;;;;;;;;;;;12.73;100.00;97908.16;5123936;28;19924;-66
2023/03/19 11:48:56;;;;;;;;;;;;;;;12.91;100.00;97910.19;5124254;28;19924;-66
2023/03/19 11:51:25;;;;;;;;;;;;;;;12.98;100.00;97910.69;5111766;28;19979;-66
2023/03/19 11:53:58;;;;;;;;;;;;;;;13.04;100.00;97899.91;5110532;28;19924;-66
2023/03/19 11:56:31;;;;;;;;;;;;;;;13.10;100.00;97898.81;5112054;28;19924;-66
2023/03/19 11:59:07;;;;;;;;;;;;;;;13.05;100.00;97890.78;5118666;28;19920;-66
2023/03/19 12:01:40;;;;;;;;;;;;;;;13.06;100.00;97893.19;5113518;28;19927;-66
2023/03/19 12:04:18;;;;;;;;;;;;;;;13.15;100.00;97891.53;5121930;28;19924;-66
2023/03/19 12:06:50;;;;;;;;;;;;;;;13.26;100.00;97884.22;5123925;28;19935;-66
2023/03/19 12:09:21;;;;;;;;;;;;;;;13.31;100.00;97889.53;5120164;28;19924;-66
2023/03/19 12:11:52;;;;;;;;;;;;;;;12.97;100.00;97884.13;5120314;28;19935;-66
2023/03/19 12:14:31;;;;;;;;;;;;;;;13.27;100.00;97880.47;5120683;28;19924;-66
2023/03/19 12:17:03;;;;;;;;;;;;;;;13.41;100.00;97878.72;5122120;28;19952;-66
2023/03/19 12:19:48;;;;;;;;;;;;;;;13.55;100.00;97879.69;5123938;28;19924;-66
2023/03/19 12:22:19;;;;;;;;;;;;;;;13.53;100.00;97871.91;5111827;28;19924;-66
2023/03/19 12:24:55;;;;;;;;;;;;;;;13.49;100.00;97873.56;5111658;28;19950;-66
2023/03/19 12:27:26;;;;;;;;;;;;;;;13.48;100.00;97873.84;5116620;28;19927;-66
2023/03/19 12:29:56;;;;;;;;;;;;;;;13.29;100.00;97864.91;5122952;28;19946;-66
2023/03/19 12:32:31;;;;;;;;;;;;;;;13.42;100.00;97875.78;5117128;28;19931;-66
2023/03/19 12:35:02;;;;;;;;;;;;;;;13.65;100.00;97873.44;5122465;28;19924;-66
2023/03/19 12:37:34;;;;;;;;;;;;;;;13.48;100.00;97868.50;5120107;28;19924;-66
2023/03/19 12:40:06;;;;;;;;;;;;;;;13.52;100.00;97880.25;5121314;28;19947;-66